Time;durP1;ratioP1;P1;durP2;ratioP2;P2;SDS_P1;SDS_P2;PMS_P1;PMS_P2;Temp;Humidity;BMP_temperature;BMP_pressure;BME280_temperature;BME280_humidity;BME280_pressure;Samples;Min_cycle;Max_cycle;Signal;HPM_P1;HPM_P2
2021/11/27 00:00:41;;;;;;;4.28;1.55;;;;;;;3.86;92.60;98337.69;5072740;28;20056;-78
2021/11/27 00:03:08;;;;;;;8.30;1.77;;;;;;;3.83;92.50;98340.75;5073479;28;20355;-77
2021/11/27 00:05:34;;;;;;;4.78;1.25;;;;;;;3.88;92.66;98335.66;5072654;28;20052;-78
2021/11/27 00:08:02;;;;;;;4.75;1.40;;;;;;;3.86;92.80;98332.34;5072895;28;20373;-79
2021/11/27 00:10:29;;;;;;;3.55;1.48;;;;;;;3.87;92.73;98328.66;5072097;28;20064;-79
2021/11/27 00:12:55;;;;;;;7.13;1.35;;;;;;;3.93;92.92;98330.53;5073446;28;20016;-79
2021/11/27 00:15:23;;;;;;;3.20;1.50;;;;;;;3.92;92.71;98326.22;5073245;28;20360;-79
2021/11/27 00:17:49;;;;;;;6.57;1.38;;;;;;;3.92;92.69;98328.88;5073445;28;20027;-80
2021/11/27 00:20:18;;;;;;;7.32;1.67;;;;;;;3.91;92.43;98328.06;5073970;28;20024;-80
2021/11/27 00:22:43;;;;;;;4.30;1.30;;;;;;;3.91;92.73;98319.28;5074609;28;20027;-80
2021/11/27 00:25:10;;;;;;;5.85;1.30;;;;;;;3.94;92.22;98321.53;5075003;28;20383;-80
2021/11/27 00:27:35;;;;;;;3.25;1.30;;;;;;;3.91;92.07;98319.28;5074841;28;20021;-80
2021/11/27 00:30:02;;;;;;;6.03;1.15;;;;;;;3.88;91.80;98322.34;5080894;28;20106;-80
2021/11/27 00:32:28;;;;;;;6.70;1.40;;;;;;;3.83;92.18;98324.78;5082500;28;20037;-79
2021/11/27 00:34:54;;;;;;;3.20;1.20;;;;;;;3.71;92.52;98319.22;5079995;28;20059;-79
2021/11/27 00:37:19;;;;;;;6.10;1.30;;;;;;;3.65;92.68;98323.50;5075362;28;20111;-80
2021/11/27 00:39:44;;;;;;;6.80;1.45;;;;;;;3.63;92.33;98325.53;5075262;28;20413;-80
2021/11/27 00:42:10;;;;;;;5.93;1.50;;;;;;;3.57;92.43;98331.66;5076525;28;20078;-79
2021/11/27 00:44:35;;;;;;;5.47;1.33;;;;;;;3.63;92.75;98332.69;5075165;28;20025;-79
2021/11/27 00:47:01;;;;;;;6.03;1.85;;;;;;;3.59;93.20;98331.47;5076013;28;20052;-79
2021/11/27 00:49:26;;;;;;;6.35;1.30;;;;;;;3.57;93.11;98326.31;5075924;28;20040;-79
2021/11/27 00:51:51;;;;;;;5.78;1.70;;;;;;;3.65;93.33;98317.34;5074794;28;20128;-79
2021/11/27 00:54:20;;;;;;;5.57;1.23;;;;;;;3.76;93.78;98318.63;5058377;28;20028;-79
2021/11/27 00:56:46;;;;;;;6.07;1.08;;;;;;;3.84;93.19;98321.09;5062938;28;20036;-80
2021/11/27 00:59:11;;;;;;;2.28;0.82;;;;;;;3.81;92.46;98318.84;5055341;28;20467;-80
2021/11/27 01:01:37;;;;;;;5.18;1.02;;;;;;;3.81;91.76;98310.84;5057058;28;20116;-80
2021/11/27 01:04:02;;;;;;;10.13;1.27;;;;;;;3.81;92.06;98321.50;5054468;28;20025;-80
2021/11/27 01:06:29;;;;;;;4.93;1.13;;;;;;;3.79;91.89;98319.06;5056283;28;20433;-80
2021/11/27 01:08:58;;;;;;;4.90;1.00;;;;;;;3.79;91.76;98318.22;5037792;28;20111;-80
2021/11/27 01:11:36;;;;;;;2.03;0.88;;;;;;;3.76;92.27;98314.09;5055795;28;20021;-80
2021/11/27 01:14:05;;;;;;;4.15;0.80;;;;;;;3.65;91.36;98317.34;5037826;28;20029;-80
2021/11/27 01:16:33;;;;;;;5.60;0.93;;;;;;;3.58;91.79;98316.50;5055629;28;20025;-80
2021/11/27 01:18:59;;;;;;;5.43;1.42;;;;;;;3.50;91.73;98317.50;5054514;28;20449;-78
2021/11/27 01:21:29;;;;;;;7.63;1.00;;;;;;;3.43;91.73;98320.13;5055800;28;20124;-79
2021/11/27 01:23:58;;;;;;;6.97;1.15;;;;;;;3.36;92.25;98315.81;5057822;28;20045;-79
2021/11/27 01:26:24;;;;;;;8.80;1.25;;;;;;;3.29;92.46;98321.06;5056437;28;20021;-79
2021/11/27 01:28:49;;;;;;;5.95;1.20;;;;;;;3.28;92.38;98333.56;5038324;28;20021;-79
2021/11/27 01:31:15;;;;;;;9.32;1.33;;;;;;;3.21;92.22;98318.59;5055180;28;20045;-79
2021/11/27 01:33:41;;;;;;;5.97;1.05;;;;;;;3.22;92.64;98323.72;5055897;28;20029;-78
2021/11/27 01:36:06;;;;;;;10.05;1.30;;;;;;;3.22;92.67;98328.22;5055279;28;20156;-80
2021/11/27 01:38:33;;;;;;;3.83;1.27;;;;;;;3.20;93.68;98333.72;5056564;28;20499;-80
2021/11/27 01:40:59;;;;;;;5.40;1.15;;;;;;;3.19;93.60;98333.94;5056837;28;20107;-79
2021/11/27 01:43:25;;;;;;;5.30;1.38;;;;;;;3.18;94.10;98338.41;5075248;28;20491;-80
2021/11/27 01:45:52;;;;;;;1.90;0.95;;;;;;;3.17;94.51;98343.94;5075178;28;20036;-79
2021/11/27 01:48:21;;;;;;;6.18;1.30;;;;;;;3.15;94.11;98341.47;5059071;28;20078;-80
2021/11/27 01:50:55;;;;;;;2.90;1.27;;;;;;;3.14;94.54;98341.66;5090527;28;20143;-79
2021/11/27 01:53:22;;;;;;;7.57;1.30;;;;;;;3.11;94.71;98336.72;5074958;28;20025;-79
2021/11/27 01:55:53;;;;;;;7.77;1.40;;;;;;;3.07;94.73;98347.75;5075684;28;20031;-79
2021/11/27 01:58:19;;;;;;;14.88;2.00;;;;;;;3.04;95.07;98352.63;5075580;28;20124;-79
2021/11/27 02:00:48;;;;;;;13.27;1.90;;;;;;;3.01;95.39;98355.69;5074105;28;20090;-79
2021/11/27 02:03:13;;;;;;;7.47;1.55;;;;;;;2.98;95.37;98369.38;5075559;28;20029;-79
2021/11/27 02:05:40;;;;;;;9.25;1.40;;;;;;;2.93;94.68;98369.94;5073440;28;20028;-79
2021/11/27 02:08:05;;;;;;;8.60;1.20;;;;;;;2.94;94.80;98370.75;5075032;28;20111;-79
2021/11/27 02:10:31;;;;;;;4.55;1.10;;;;;;;2.95;94.27;98367.91;5073217;28;20132;-79
2021/11/27 02:12:56;;;;;;;8.77;1.17;;;;;;;2.97;94.17;98368.53;5073496;28;20082;-80
2021/11/27 02:15:22;;;;;;;5.63;1.45;;;;;;;2.97;94.53;98365.06;5074896;28;20021;-79
2021/11/27 02:17:48;;;;;;;10.95;1.48;;;;;;;2.98;94.26;98375.50;5056794;28;20024;-79
2021/11/27 02:20:14;;;;;;;9.30;1.73;;;;;;;2.94;93.71;98370.75;5053480;28;20025;-80
2021/11/27 02:22:39;;;;;;;6.35;1.65;;;;;;;2.98;93.55;98374.69;5053394;28;20052;-80
2021/11/27 02:25:09;;;;;;;6.53;1.70;;;;;;;3.00;94.41;98375.28;5053216;28;20427;-80
2021/11/27 02:27:34;;;;;;;7.25;1.77;;;;;;;3.01;94.18;98368.97;5093025;28;20031;-79
2021/11/27 02:30:00;;;;;;;6.15;2.15;;;;;;;3.02;93.69;98365.28;5094504;28;20044;-80
2021/11/27 02:32:25;;;;;;;6.38;2.17;;;;;;;3.02;93.09;98366.09;5093202;28;20141;-80
2021/11/27 02:34:50;;;;;;;10.20;1.75;;;;;;;2.97;92.62;98365.06;5081768;28;20506;-80
2021/11/27 02:37:16;;;;;;;8.27;2.00;;;;;;;2.98;92.79;98364.06;5073953;28;20089;-80
2021/11/27 02:39:41;;;;;;;8.50;1.92;;;;;;;3.00;93.17;98367.31;5072744;28;20151;-80
2021/11/27 02:42:08;;;;;;;4.35;1.73;;;;;;;2.99;92.55;98365.69;5072706;28;20440;-79
2021/11/27 02:44:35;;;;;;;9.55;1.70;;;;;;;2.95;92.61;98356.44;5072716;28;20051;-80
2021/11/27 02:47:01;;;;;;;6.65;1.75;;;;;;;2.94;92.22;98354.81;5072627;28;20472;-80
2021/11/27 02:49:28;;;;;;;5.47;1.50;;;;;;;2.95;92.65;98364.41;5073941;28;20048;-80
2021/11/27 02:51:54;;;;;;;5.35;1.98;;;;;;;2.88;92.63;98363.56;5073022;28;20025;-79
2021/11/27 02:54:20;;;;;;;8.40;1.88;;;;;;;2.86;92.97;98361.09;5072706;28;20024;-80
2021/11/27 02:56:46;;;;;;;10.13;2.13;;;;;;;2.84;93.55;98365.78;5055609;28;20396;-80
2021/11/27 02:59:16;;;;;;;9.65;1.60;;;;;;;2.82;93.74;98376.59;5055802;28;20028;-80
2021/11/27 03:01:43;;;;;;;5.13;1.60;;;;;;;2.81;92.99;98374.13;5072778;28;20036;-80
2021/11/27 03:04:09;;;;;;;6.90;1.50;;;;;;;2.81;92.42;98369.63;5073447;28;20025;-80
2021/11/27 03:06:35;;;;;;;6.72;1.38;;;;;;;2.89;91.96;98375.81;5048958;28;20033;-80
2021/11/27 03:09:04;;;;;;;7.45;1.48;;;;;;;2.86;91.55;98367.22;5052220;28;20052;-80
2021/11/27 03:11:29;;;;;;;6.38;1.48;;;;;;;2.83;91.58;98378.25;5053648;28;20032;-80
2021/11/27 03:13:55;;;;;;;4.30;1.38;;;;;;;2.85;91.40;98380.72;5053325;28;20017;-80
2021/11/27 03:16:25;;;;;;;4.50;1.50;;;;;;;2.87;91.73;98389.31;5035285;28;20032;-80
2021/11/27 03:18:51;;;;;;;6.50;1.55;;;;;;;2.91;92.36;98377.28;5019622;28;20389;-80
2021/11/27 03:21:16;;;;;;;4.50;1.60;;;;;;;2.93;92.32;98377.91;5053531;28;20039;-80
2021/11/27 03:23:42;;;;;;;11.38;1.95;;;;;;;2.92;92.50;98370.94;5052137;28;20088;-80
2021/11/27 03:26:07;;;;;;;11.32;1.85;;;;;;;2.91;92.26;98377.28;5052011;28;20032;-80
2021/11/27 03:28:32;;;;;;;6.18;1.88;;;;;;;2.90;91.66;98380.09;5053575;28;20036;-80
2021/11/27 03:30:58;;;;;;;4.53;1.98;;;;;;;2.89;91.60;98381.13;5051976;28;20472;-80
2021/11/27 03:33:23;;;;;;;6.88;1.98;;;;;;;2.89;90.66;98381.13;5053215;28;20151;-80
2021/11/27 03:35:48;;;;;;;10.68;2.60;;;;;;;2.89;91.29;98386.44;5053814;28;20108;-80
2021/11/27 03:38:14;;;;;;;7.85;2.90;;;;;;;2.90;91.91;98388.09;5053310;28;20093;-80
2021/11/27 03:40:40;;;;;;;9.35;2.83;;;;;;;2.92;91.11;98388.72;5051840;28;20017;-80
2021/11/27 03:43:05;;;;;;;6.80;2.55;;;;;;;2.89;91.18;98392.59;5053514;28;20110;-80
2021/11/27 03:45:31;;;;;;;10.25;3.17;;;;;;;2.88;91.86;98398.09;5052203;28;20032;-80
2021/11/27 03:48:04;;;;;;;7.25;2.80;;;;;;;2.85;92.30;98392.16;5053572;28;20029;-79
2021/11/27 03:50:33;;;;;;;12.93;3.03;;;;;;;2.81;92.88;98404.16;5054339;28;20477;-80
2021/11/27 03:52:59;;;;;;;10.38;3.55;;;;;;;2.81;92.38;98409.47;5052333;28;20025;-80
2021/11/27 03:55:24;;;;;;;12.52;3.35;;;;;;;2.88;92.39;98414.84;5052933;28;20400;-80
2021/11/27 03:57:49;;;;;;;8.50;3.00;;;;;;;2.85;92.53;98413.41;5051590;28;20544;-80
2021/11/27 04:00:15;;;;;;;5.63;2.90;;;;;;;2.85;92.55;98418.72;5051720;28;20441;-80
2021/11/27 04:02:40;;;;;;;8.82;3.88;;;;;;;2.85;92.58;98423.22;5053313;28;20033;-79
2021/11/27 04:05:06;;;;;;;12.18;3.65;;;;;;;2.80;92.34;98423.78;5055487;28;20029;-79
2021/11/27 04:07:31;;;;;;;11.20;3.53;;;;;;;2.78;92.64;98428.47;5055550;28;20032;-79
2021/11/27 04:09:56;;;;;;;13.57;3.65;;;;;;;2.72;92.55;98429.22;5056580;28;20074;-79
2021/11/27 04:12:22;;;;;;;7.50;3.60;;;;;;;2.72;92.68;98418.59;5055541;28;20443;-79
2021/11/27 04:14:47;;;;;;;11.57;3.63;;;;;;;2.72;92.89;98429.22;5055536;28;20101;-79
2021/11/27 04:17:12;;;;;;;11.82;3.80;;;;;;;2.69;92.98;98434.13;5055574;28;20473;-79
2021/11/27 04:19:39;;;;;;;13.05;4.60;;;;;;;2.67;93.72;98431.63;5038923;28;20112;-79
2021/11/27 04:22:05;;;;;;;11.00;4.88;;;;;;;2.68;93.64;98435.09;5058537;28;20029;-79
2021/11/27 04:24:30;;;;;;;10.52;4.50;;;;;;;2.67;93.99;98441.44;5057632;28;20028;-79
2021/11/27 04:26:55;;;;;;;7.20;3.95;;;;;;;2.69;93.50;98448.22;5060415;28;20085;-79
2021/11/27 04:29:21;;;;;;;10.50;3.65;;;;;;;2.66;92.81;98442.44;5061711;28;20048;-79
2021/11/27 04:31:48;;;;;;;12.52;4.20;;;;;;;2.67;92.88;98442.25;5062230;28;20538;-80
2021/11/27 04:34:13;;;;;;;11.35;5.15;;;;;;;2.67;92.77;98446.75;5057952;28;20029;-79
2021/11/27 04:36:39;;;;;;;11.35;4.70;;;;;;;2.68;92.71;98446.53;5055331;28;20029;-79
2021/11/27 04:39:04;;;;;;;10.93;4.85;;;;;;;2.69;92.77;98450.88;5056291;28;20481;-79
2021/11/27 04:41:30;;;;;;;10.73;4.68;;;;;;;2.66;93.09;98456.56;5056471;28;20032;-79
2021/11/27 04:43:55;;;;;;;12.52;5.05;;;;;;;2.65;93.26;98460.22;5055188;28;20037;-79
2021/11/27 04:46:21;;;;;;;7.97;4.80;;;;;;;2.64;93.33;98463.88;5054837;28;20036;-79
2021/11/27 04:48:46;;;;;;;9.32;4.78;;;;;;;2.62;93.93;98464.06;5054903;28;20104;-79
2021/11/27 04:51:11;;;;;;;10.25;4.93;;;;;;;2.62;93.72;98463.25;5054690;28;20033;-79
2021/11/27 04:53:37;;;;;;;8.40;5.20;;;;;;;2.64;93.31;98471.84;5055020;28;20052;-79
2021/11/27 04:56:02;;;;;;;13.63;5.15;;;;;;;2.63;93.89;98464.88;5056315;28;20068;-79
2021/11/27 04:58:29;;;;;;;13.70;5.75;;;;;;;2.65;93.70;98473.50;5054954;28;20111;-79
2021/11/27 05:00:55;;;;;;;8.27;5.85;;;;;;;2.65;94.33;98481.44;5055817;28;20029;-79
2021/11/27 05:03:20;;;;;;;13.02;6.80;;;;;;;2.65;94.28;98481.44;5056166;28;20037;-79
2021/11/27 05:05:46;;;;;;;13.90;6.18;;;;;;;2.66;94.72;98491.09;5055727;28;20428;-79
2021/11/27 05:08:11;;;;;;;16.67;6.80;;;;;;;2.64;94.86;98488.59;5054511;28;20028;-79
2021/11/27 05:10:37;;;;;;;15.30;6.35;;;;;;;2.65;94.88;98486.75;5055780;28;20025;-79
2021/11/27 05:13:03;;;;;;;13.10;5.97;;;;;;;2.60;94.94;98489.16;5055670;28;20052;-79
2021/11/27 05:15:30;;;;;;;13.32;6.07;;;;;;;2.58;93.94;98494.69;5053585;28;20028;-80
2021/11/27 05:17:55;;;;;;;17.98;6.88;;;;;;;2.60;94.09;98489.16;5054514;28;20119;-78
2021/11/27 05:20:20;;;;;;;12.50;7.22;;;;;;;2.65;94.31;98492.06;5055687;28;20107;-78
2021/11/27 05:22:46;;;;;;;9.30;6.47;;;;;;;2.65;94.02;98497.38;5054244;28;20033;-80
2021/11/27 05:25:12;;;;;;;15.05;7.38;;;;;;;2.70;94.81;98499.50;5055470;28;20033;-79
2021/11/27 05:27:38;;;;;;;19.33;7.72;;;;;;;2.79;94.30;98509.81;5054142;28;20029;-79
2021/11/27 05:30:07;;;;;;;13.50;7.68;;;;;;;2.85;94.38;98514.34;5054043;28;20045;-79
2021/11/27 05:34:59;;;;;;;15.27;7.70;;;;;;;2.92;93.96;98518.91;5054360;28;20041;-80
2021/11/27 05:37:25;;;;;;;15.60;7.40;;;;;;;2.97;94.31;98527.13;5054113;28;20121;-79
2021/11/27 05:39:50;;;;;;;16.20;8.02;;;;;;;2.90;94.18;98531.53;5056175;28;20025;-79
2021/11/27 05:42:17;;;;;;;18.52;8.85;;;;;;;2.97;93.46;98540.41;5078869;28;20033;-81
2021/11/27 05:44:43;;;;;;;17.70;8.32;;;;;;;3.04;93.84;98543.97;5068401;28;20333;-80
2021/11/27 05:47:09;;;;;;;12.48;7.63;;;;;;;2.95;94.09;98542.44;5083075;28;20032;-80
2021/11/27 05:49:35;;;;;;;16.35;8.80;;;;;;;2.90;94.07;98547.47;5092849;28;20033;-80
2021/11/27 05:52:00;;;;;;;17.33;9.20;;;;;;;2.85;94.46;98551.53;5088526;28;20040;-81
2021/11/27 05:54:26;;;;;;;19.75;9.13;;;;;;;2.84;94.06;98552.56;5085289;28;20365;-81
2021/11/27 05:56:51;;;;;;;15.40;9.38;;;;;;;2.82;94.55;98553.78;5063000;28;20439;-80
2021/11/27 05:59:16;;;;;;;18.80;9.48;;;;;;;2.80;94.98;98561.91;5077914;28;20020;-79
2021/11/27 06:01:42;;;;;;;19.70;10.70;;;;;;;2.76;95.04;98557.16;5076417;28;20060;-80
2021/11/27 06:04:07;;;;;;;21.45;9.57;;;;;;;2.74;94.88;98562.69;5075721;28;20027;-80
2021/11/27 06:06:33;;;;;;;21.10;9.85;;;;;;;2.77;94.46;98567.59;5076446;28;20032;-80
2021/11/27 06:09:00;;;;;;;19.60;10.88;;;;;;;2.77;94.78;98580.88;5074407;28;20040;-80
2021/11/27 06:11:25;;;;;;;21.50;10.38;;;;;;;2.78;94.93;98579.88;5075855;28;20024;-80
2021/11/27 06:13:51;;;;;;;22.70;11.23;;;;;;;2.78;95.05;98585.19;5076906;28;20037;-81
2021/11/27 06:16:16;;;;;;;24.15;11.32;;;;;;;2.78;94.99;98590.50;5063168;28;20037;-80
2021/11/27 06:18:41;;;;;;;25.00;12.23;;;;;;;2.77;94.64;98590.69;5079017;28;20025;-81
2021/11/27 06:21:08;;;;;;;21.58;12.07;;;;;;;2.83;94.75;98596.06;5077254;28;20035;-80
2021/11/27 06:23:34;;;;;;;21.65;11.50;;;;;;;2.87;94.61;98599.19;5072617;28;20034;-81
2021/11/27 06:25:59;;;;;;;22.48;12.23;;;;;;;2.88;94.86;98610.63;5073237;28;20415;-81
2021/11/27 06:28:24;;;;;;;30.23;12.85;;;;;;;2.87;95.28;98599.19;5073379;28;20388;-81
2021/11/27 06:30:50;;;;;;;20.83;12.38;;;;;;;2.86;95.56;98610.81;5076053;28;20119;-81
2021/11/27 06:33:15;;;;;;;28.55;13.48;;;;;;;2.84;95.06;98608.34;5073996;28;20028;-81
2021/11/27 06:35:41;;;;;;;26.10;13.75;;;;;;;2.85;94.87;98611.84;5073077;28;20032;-79
2021/11/27 06:38:07;;;;;;;21.27;12.45;;;;;;;2.82;95.26;98615.69;5074342;28;20112;-79
2021/11/27 06:40:34;;;;;;;28.73;13.02;;;;;;;2.82;95.33;98610.38;5074340;28;20025;-80
2021/11/27 06:43:02;;;;;;;31.40;14.43;;;;;;;2.81;95.34;98614.00;5074205;28;20036;-81
2021/11/27 06:45:28;;;;;;;;;;;;;;;2.81;95.61;98626.47;5073913;28;20071;-82
2021/11/27 06:47:55;;;;;;;27.60;13.70;;;;;;;2.81;95.67;98629.94;5074566;28;20280;-82
2021/11/27 06:50:21;;;;;;;32.40;15.10;;;;;;;2.79;95.46;98647.94;5056537;28;20024;-81
2021/11/27 06:52:46;;;;;;;37.47;15.75;;;;;;;2.78;94.84;98651.59;5073152;28;20287;-81
2021/11/27 06:55:12;;;;;;;32.97;15.25;;;;;;;2.85;95.35;98657.81;5074409;28;20055;-82
2021/11/27 06:57:37;;;;;;;34.78;16.02;;;;;;;2.84;95.38;98661.50;5074576;28;20032;-81
2021/11/27 07:00:07;;;;;;;38.83;17.23;;;;;;;2.84;95.40;98671.25;5074356;28;20417;-82
2021/11/27 07:02:32;;;;;;;32.50;14.68;;;;;;;2.90;95.11;98664.38;5073118;28;20395;-82
2021/11/27 07:04:57;;;;;;;35.65;15.82;;;;;;;2.86;95.08;98666.59;5073029;28;20103;-82
2021/11/27 07:07:24;;;;;;;41.58;17.65;;;;;;;2.84;95.18;98666.81;5074523;28;20082;-82
2021/11/27 07:09:50;;;;;;;40.90;17.70;;;;;;;2.81;95.25;98667.16;5073111;28;20028;-82
2021/11/27 07:12:15;;;;;;;45.85;18.55;;;;;;;2.75;94.90;98673.22;5073661;28;20074;-82
2021/11/27 07:14:41;;;;;;;44.13;19.52;;;;;;;2.76;94.72;98674.84;5072785;28;20032;-82
2021/11/27 07:17:06;;;;;;;42.35;19.63;;;;;;;2.75;95.14;98673.22;5073669;28;20036;-83
2021/11/27 07:19:32;;;;;;;43.10;19.50;;;;;;;2.78;95.21;98682.63;5072231;28;20017;-83
2021/11/27 07:21:59;;;;;;;42.17;20.20;;;;;;;2.81;95.08;98682.25;5072269;28;20035;-82
2021/11/27 07:24:27;;;;;;;46.92;19.80;;;;;;;2.84;94.71;98688.06;5073168;28;20468;-83
2021/11/27 07:26:56;;;;;;;46.63;20.60;;;;;;;2.84;94.95;98698.69;5073240;28;20067;-82
2021/11/27 07:29:21;;;;;;;51.47;20.55;;;;;;;2.85;95.11;98700.31;5071947;28;20024;-82
2021/11/27 07:31:48;;;;;;;48.33;21.55;;;;;;;2.89;94.68;98699.94;5074378;28;20046;-83
2021/11/27 07:34:14;;;;;;;48.03;20.20;;;;;;;2.87;94.40;98705.47;5064297;28;20086;-82
2021/11/27 07:36:39;;;;;;;45.25;19.67;;;;;;;2.92;94.57;98712.84;5082435;28;20017;-83
2021/11/27 07:39:07;;;;;;;48.92;20.17;;;;;;;2.96;94.55;98717.63;5074443;28;20089;-82
2021/11/27 07:41:39;;;;;;;40.40;18.27;;;;;;;3.03;94.56;98729.16;5075727;28;20103;-86
2021/11/27 07:44:06;;;;;;;48.10;20.38;;;;;;;3.07;94.39;98724.28;5058512;28;20043;-82
2021/11/27 07:46:35;;;;;;;45.45;20.73;;;;;;;3.10;94.38;98723.91;5075173;28;20039;-81
2021/11/27 07:49:00;;;;;;;45.15;20.50;;;;;;;3.14;94.54;98729.69;5075475;28;20100;-83
2021/11/27 07:51:26;;;;;;;50.47;20.23;;;;;;;3.16;94.33;98738.28;5073353;28;20116;-84
2021/11/27 07:53:51;;;;;;;46.17;20.65;;;;;;;3.21;94.41;98743.88;5075938;28;20086;-85
2021/11/27 07:56:16;;;;;;;49.60;19.15;;;;;;;3.23;94.89;98753.31;5072794;28;20085;-83
2021/11/27 07:58:42;;;;;;;42.33;20.30;;;;;;;3.28;94.44;98755.41;5072391;28;20051;-83
2021/11/27 08:01:08;;;;;;;41.33;18.75;;;;;;;3.29;93.93;98763.22;5057191;28;20027;-82
2021/11/27 08:03:33;;;;;;;49.35;19.63;;;;;;;3.27;93.92;98769.72;5073871;28;20028;-82
2021/11/27 08:05:59;;;;;;;39.58;18.95;;;;;;;3.24;94.39;98759.47;5073346;28;20047;-82
2021/11/27 08:08:24;;;;;;;50.15;20.15;;;;;;;3.24;93.99;98773.59;5073003;28;20029;-82
2021/11/27 08:10:50;;;;;;;48.40;20.10;;;;;;;3.24;94.61;98781.56;5073330;28;20024;-82
2021/11/27 08:13:16;;;;;;;51.58;21.83;;;;;;;3.27;94.92;98785.69;5072688;28;20025;-82
2021/11/27 08:15:41;;;;;;;51.83;21.80;;;;;;;3.27;94.79;98785.69;5057533;28;20032;-83
2021/11/27 08:18:09;;;;;;;46.78;20.35;;;;;;;3.24;94.12;98789.53;5058216;28;20082;-82
2021/11/27 08:20:38;;;;;;;54.33;21.95;;;;;;;3.27;93.60;98788.34;5078143;28;20567;-82
2021/11/27 08:23:05;;;;;;;56.70;22.65;;;;;;;3.28;93.72;98790.78;5078856;28;20032;-83
2021/11/27 08:25:31;;;;;;;58.97;21.95;;;;;;;3.35;93.54;98795.41;5083900;28;20033;-82
2021/11/27 08:27:57;;;;;;;60.30;22.52;;;;;;;3.38;93.53;98795.84;5089598;28;20032;-83
2021/11/27 08:30:25;;;;;;;62.88;22.83;;;;;;;3.44;93.82;98800.41;5089952;28;20051;-81
2021/11/27 08:32:51;;;;;;;57.70;22.02;;;;;;;3.48;94.43;98800.88;5086168;28;20025;-81
2021/11/27 08:35:16;;;;;;;60.33;23.77;;;;;;;3.52;94.32;98812.78;5072261;28;20062;-81
2021/11/27 08:37:43;;;;;;;57.97;22.98;;;;;;;3.53;94.17;98817.09;5073855;28;20165;-81
2021/11/27 08:40:09;;;;;;;58.28;22.83;;;;;;;3.55;94.79;98817.72;5073251;28;20028;-80
2021/11/27 08:42:35;;;;;;;55.22;23.27;;;;;;;3.57;94.95;98821.00;5074399;28;20110;-80
2021/11/27 08:45:00;;;;;;;61.17;22.67;;;;;;;3.57;94.76;98826.34;5072273;28;20456;-80
2021/11/27 08:47:26;;;;;;;63.47;24.67;;;;;;;3.57;94.40;98828.19;5071598;28;20158;-81
2021/11/27 08:49:52;;;;;;;51.90;21.85;;;;;;;3.53;94.17;98833.06;5075065;28;20028;-81
2021/11/27 08:52:18;;;;;;;50.80;21.60;;;;;;;3.54;94.10;98833.88;5077141;28;20066;-79
2021/11/27 08:54:44;;;;;;;58.75;21.63;;;;;;;3.53;93.87;98835.72;5076950;28;20032;-80
2021/11/27 08:57:09;;;;;;;46.60;21.10;;;;;;;3.49;93.62;98834.41;5075409;28;20435;-80
2021/11/27 08:59:36;;;;;;;54.28;21.85;;;;;;;3.48;92.76;98838.09;5076133;28;20024;-80
2021/11/27 09:02:03;;;;;;;58.50;21.75;;;;;;;3.45;92.72;98841.97;5075568;28;20059;-79
2021/11/27 09:04:29;;;;;;;39.42;19.70;;;;;;;3.44;92.45;98842.94;5074857;28;20073;-81
2021/11/27 09:06:54;;;;;;;46.38;18.33;;;;;;;3.42;92.67;98850.31;5072787;28;20119;-82
2021/11/27 09:09:20;;;;;;;42.85;19.15;;;;;;;3.45;92.13;98841.09;5073266;28;20552;-80
2021/11/27 09:11:46;;;;;;;47.10;20.13;;;;;;;3.43;92.16;98845.81;5073641;28;20526;-81
2021/11/27 09:14:11;;;;;;;60.20;18.65;;;;;;;3.40;92.18;98841.69;5074539;28;20162;-81
2021/11/27 09:16:37;;;;;;;44.10;18.13;;;;;;;3.43;92.25;98845.81;5075065;28;20161;-82
2021/11/27 09:19:05;;;;;;;50.83;20.08;;;;;;;3.44;92.65;98845.59;5074442;28;20106;-82
2021/11/27 09:21:30;;;;;;;;;;;;;;;3.40;92.00;98854.16;5068743;28;20393;-81
2021/11/27 09:23:56;;;;;;;41.30;17.48;;;;;;;3.38;91.67;98853.50;5054746;28;19916;-81
2021/11/27 09:26:21;;;;;;;46.90;17.33;;;;;;;3.41;92.05;98859.28;5083683;28;20033;-81
2021/11/27 09:28:47;;;;;;;60.88;18.90;;;;;;;3.42;91.95;98862.75;5069502;28;20419;-82
2021/11/27 09:31:13;;;;;;;44.88;17.95;;;;;;;3.40;92.20;98867.47;5079174;28;20040;-85
2021/11/27 09:33:38;;;;;;;50.60;20.00;;;;;;;3.39;91.82;98871.09;5079170;28;20118;-81
2021/11/27 09:36:06;;;;;;;50.17;19.45;;;;;;;3.40;92.13;98875.44;5075537;28;20025;-85
2021/11/27 09:38:32;;;;;;;;;;;;;;;3.38;92.70;98869.47;5075190;28;20094;-82
2021/11/27 09:41:20;;;;;;;56.80;21.42;;;;;;;3.38;92.95;98875.59;5072256;28;19908;-82
2021/11/27 09:43:47;;;;;;;56.85;21.85;;;;;;;3.41;93.04;98871.75;5042230;28;20108;-77
2021/11/27 09:46:14;;;;;;;49.20;21.23;;;;;;;3.35;93.02;98872.50;5060885;28;20127;-78
2021/11/27 09:48:41;;;;;;;56.40;21.08;;;;;;;3.34;93.54;98873.50;5067177;28;20028;-79
2021/11/27 09:51:09;;;;;;;61.05;21.83;;;;;;;3.38;93.28;98875.59;5064251;28;20024;-78
2021/11/27 09:53:37;;;;;;;64.97;22.38;;;;;;;3.43;93.02;98877.72;5058758;28;20120;-78
2021/11/27 09:56:04;;;;;;;52.20;20.35;;;;;;;3.47;92.86;98873.66;5074879;28;20032;-78
2021/11/27 09:58:29;;;;;;;52.97;21.40;;;;;;;3.55;93.27;98860.25;5062543;28;20037;-78
2021/11/27 10:00:57;;;;;;;45.65;18.50;;;;;;;3.61;92.83;98867.53;5041202;28;20024;-78
2021/11/27 10:03:22;;;;;;;39.20;16.58;;;;;;;3.66;93.20;98865.13;5065437;28;20052;-77
2021/11/27 10:05:48;;;;;;;40.35;12.63;;;;;;;3.64;91.88;98861.84;5063922;28;20033;-77
2021/11/27 10:08:13;;;;;;;35.67;13.13;;;;;;;3.70;92.36;98868.25;5071468;28;20425;-77
2021/11/27 10:10:39;;;;;;;41.67;12.48;;;;;;;3.77;92.36;98871.81;5072254;28;20023;-77
2021/11/27 10:13:05;;;;;;;29.77;9.07;;;;;;;3.76;92.17;98874.66;5045723;28;20044;-77
2021/11/27 10:15:30;;;;;;;29.00;7.63;;;;;;;3.83;91.43;98870.25;5057375;28;20451;-78
2021/11/27 10:17:55;;;;;;;22.98;6.47;;;;;;;3.96;92.71;98868.53;5066161;28;20032;-77
2021/11/27 10:20:21;;;;;;;18.38;6.05;;;;;;;4.06;92.71;98873.56;5067283;28;20414;-78
2021/11/27 10:22:55;;;;;;;19.35;5.43;;;;;;;4.26;92.86;98875.59;5067897;28;20032;-78
2021/11/27 10:25:34;;;;;;;16.02;4.30;;;;;;;4.35;92.65;98872.63;5054021;28;20476;-76
2021/11/27 10:28:08;;;;;;;17.85;3.17;;;;;;;4.38;89.83;98866.13;5052857;28;20025;-74
2021/11/27 10:30:44;;;;;;;15.48;3.70;;;;;;;4.48;89.86;98871.13;5052547;28;20041;-76
2021/11/27 10:33:10;;;;;;;13.82;2.72;;;;;;;4.17;86.56;98888.22;5053830;28;20370;-75
2021/11/27 10:35:36;;;;;;;12.90;3.03;;;;;;;4.05;87.44;98871.91;5065710;28;20070;-77
2021/11/27 10:38:05;;;;;;;15.75;3.15;;;;;;;3.96;88.33;98870.38;5055938;28;20059;-77
2021/11/27 10:40:31;;;;;;;11.30;3.33;;;;;;;3.90;88.66;98874.63;5068619;28;20024;-76
2021/11/27 10:42:59;;;;;;;15.85;2.72;;;;;;;3.81;88.89;98874.91;5055804;28;20115;-76
2021/11/27 10:45:30;;;;;;;13.63;2.88;;;;;;;3.77;89.22;98876.31;5052180;28;20064;-76
2021/11/27 10:48:10;;;;;;;9.85;2.50;;;;;;;3.67;89.83;98880.06;5052742;28;20029;-76
2021/11/27 10:50:44;;;;;;;13.93;3.00;;;;;;;3.65;89.81;98871.44;5051836;28;20052;-77
2021/11/27 10:53:11;;;;;;;19.13;2.95;;;;;;;3.58;90.76;98875.88;5053439;28;20392;-75
2021/11/27 10:55:39;;;;;;;9.50;3.13;;;;;;;3.41;90.42;98879.72;5052101;28;20032;-75
2021/11/27 10:58:06;;;;;;;;;;;;;;;3.33;91.47;98874.50;5071601;28;20056;-75
2021/11/27 11:00:34;;;;;;;13.98;3.40;;;;;;;3.25;92.11;98867.44;5073402;28;19909;-74
2021/11/27 11:03:00;;;;;;;13.32;3.58;;;;;;;3.22;92.85;98876.63;5072654;28;20048;-75
2021/11/27 11:05:32;;;;;;;10.57;2.88;;;;;;;3.06;91.93;98882.09;5073000;28;20064;-75
2021/11/27 11:07:59;;;;;;;11.63;2.80;;;;;;;2.98;91.96;98893.66;5071797;28;20024;-75
2021/11/27 11:10:32;;;;;;;19.88;3.95;;;;;;;2.92;92.94;98872.28;5071637;28;20417;-74
2021/11/27 11:12:59;;;;;;;24.88;3.13;;;;;;;2.88;93.16;98874.47;5072913;28;20027;-76
2021/11/27 11:15:38;;;;;;;13.75;2.95;;;;;;;2.87;92.66;98867.53;5073449;28;20020;-75
2021/11/27 11:18:12;;;;;;;10.05;3.10;;;;;;;2.85;92.41;98864.22;5071586;28;20039;-75
2021/11/27 11:20:44;;;;;;;19.70;2.95;;;;;;;2.88;93.20;98866.50;5071990;28;20032;-75
2021/11/27 11:23:17;;;;;;;10.90;3.05;;;;;;;2.89;93.44;98860.16;5073214;28;20107;-75
2021/11/27 11:25:53;;;;;;;16.17;2.50;;;;;;;2.83;93.18;98866.22;5074816;28;20036;-74
2021/11/27 11:28:19;;;;;;;10.90;2.85;;;;;;;2.90;93.29;98863.66;5073487;28;20036;-75
2021/11/27 11:30:47;;;;;;;13.77;2.60;;;;;;;2.90;93.25;98866.31;5065299;28;20512;-77
2021/11/27 11:33:15;;;;;;;11.98;2.80;;;;;;;2.95;92.69;98863.94;5077706;28;20556;-77